Time;durP1;ratioP1;P1;durP2;ratioP2;P2;SDS_P1;SDS_P2;PMS_P1;PMS_P2;Temp;Humidity;BMP_temperature;BMP_pressure;BME280_temperature;BME280_humidity;BME280_pressure;Samples;Min_cycle;Max_cycle;Signal;HPM_P1;HPM_P2
2023/04/14 00:00:19;;;;;;;8.32;5.25;;;;;;;14.70;64.37;97337.72;4990527;28;20249;-60
2023/04/14 00:02:45;;;;;;;5.55;4.13;;;;;;;14.58;65.17;97334.56;5006707;28;20187;-60
2023/04/14 00:05:10;;;;;;;7.65;4.40;;;;;;;14.38;66.03;97324.53;5010115;28;20269;-60
2023/04/14 00:07:36;;;;;;;5.53;3.97;;;;;;;14.49;65.26;97334.69;5010155;28;20191;-60
2023/04/14 00:10:01;;;;;;;5.88;3.88;;;;;;;14.47;66.81;97375.69;5024915;28;20214;-61
2023/04/14 00:12:26;;;;;;;6.75;4.75;;;;;;;14.08;67.35;97315.41;5029854;28;20189;-61
2023/04/14 00:14:52;;;;;;;7.15;4.60;;;;;;;13.85;68.62;97308.25;5029888;28;20189;-61
2023/04/14 00:17:17;;;;;;;4.32;3.92;;;;;;;13.97;68.62;97339.06;5030100;28;20195;-61
2023/04/14 00:19:43;;;;;;;5.38;3.83;;;;;;;13.73;68.08;97299.06;5029815;28;20206;-61
2023/04/14 00:22:08;;;;;;;5.80;4.38;;;;;;;14.39;67.64;97381.66;5029782;28;20182;-61
2023/04/14 00:24:39;;;;;;;4.35;3.90;;;;;;;14.41;67.17;97365.88;5031233;28;20671;-60
2023/04/14 00:27:05;;;;;;;5.25;4.05;;;;;;;14.41;67.50;97368.50;5051986;28;20169;-60
2023/04/14 00:29:31;;;;;;;5.10;3.85;;;;;;;14.43;66.79;97376.94;5051910;28;20285;-60
2023/04/14 00:31:56;;;;;;;5.45;4.30;;;;;;;13.76;67.12;97319.56;5029515;28;20281;-61
2023/04/14 00:34:22;;;;;;;8.00;4.88;;;;;;;14.17;66.08;97386.53;5031424;28;20286;-61
2023/04/14 00:36:47;;;;;;;9.00;4.95;;;;;;;13.63;66.14;97308.72;5033613;28;20668;-61
2023/04/14 00:39:12;;;;;;;4.65;3.80;;;;;;;13.39;67.74;97363.91;5033621;28;20186;-60
2023/04/14 00:41:38;;;;;;;5.40;3.58;;;;;;;13.38;68.42;97387.44;5033585;28;20226;-61
2023/04/14 00:44:03;;;;;;;4.22;3.83;;;;;;;12.89;70.20;97359.28;5033464;28;20269;-61
2023/04/14 00:46:29;;;;;;;3.60;3.28;;;;;;;13.06;70.03;97387.91;5033465;28;20229;-60
2023/04/14 00:48:55;;;;;;;4.63;4.05;;;;;;;12.88;69.35;97321.28;5033367;28;20197;-60
2023/04/14 00:51:21;;;;;;;4.90;4.00;;;;;;;13.07;68.46;97332.41;5033372;28;20190;-59
2023/04/14 00:53:48;;;;;;;5.32;4.60;;;;;;;13.85;67.26;97420.06;5033382;28;20186;-61
2023/04/14 00:56:14;;;;;;;4.38;3.65;;;;;;;13.85;66.82;97407.88;5033319;28;20704;-59
2023/04/14 00:58:40;;;;;;;3.60;3.30;;;;;;;13.53;66.18;97332.19;5033014;28;20225;-59
2023/04/14 01:01:05;;;;;;;6.53;3.35;;;;;;;13.96;66.07;97402.47;5033195;28;20669;-60
2023/04/14 01:03:31;;;;;;;4.15;3.20;;;;;;;13.58;68.29;97394.94;5048035;28;20190;-60
2023/04/14 01:05:57;;;;;;;3.42;3.13;;;;;;;13.52;68.96;97394.72;5053099;28;20220;-61
2023/04/14 01:08:23;;;;;;;5.65;3.10;;;;;;;13.22;68.89;97346.53;5053264;28;20186;-60
2023/04/14 01:11:05;;;;;;;3.92;3.33;;;;;;;13.44;68.54;97392.03;5052864;28;20205;-61
2023/04/14 01:13:45;;;;;;;4.00;2.83;;;;;;;13.34;69.25;97404.28;5052958;28;20273;-60
2023/04/14 01:16:18;;;;;;;3.42;2.58;;;;;;;12.72;69.89;97347.06;5052929;28;20178;-60
2023/04/14 01:18:57;;;;;;;2.90;2.45;;;;;;;12.55;69.68;97316.69;5052855;28;20186;-61
2023/04/14 01:21:30;;;;;;;2.63;2.47;;;;;;;12.99;69.31;97380.84;5052793;28;20753;-61
2023/04/14 01:23:58;;;;;;;3.17;2.83;;;;;;;13.05;69.24;97401.03;5052793;28;20225;-61
2023/04/14 01:26:30;;;;;;;3.08;2.60;;;;;;;12.91;69.42;97372.94;5052740;28;20272;-60
2023/04/14 01:28:57;;;;;;;4.47;3.15;;;;;;;12.66;71.65;97383.97;5053011;28;20265;-60
2023/04/14 01:31:28;;;;;;;5.50;3.30;;;;;;;12.15;71.88;97306.63;5054961;28;20166;-60
2023/04/14 01:34:02;;;;;;;3.55;3.17;;;;;;;12.76;71.76;97388.16;5054617;28;20185;-60
2023/04/14 01:36:40;;;;;;;3.33;3.03;;;;;;;12.64;72.09;97396.25;5054972;28;20162;-60
2023/04/14 01:39:09;;;;;;;3.35;2.88;;;;;;;12.37;72.24;97347.75;5054866;28;20158;-59
2023/04/14 01:41:38;;;;;;;2.00;1.90;;;;;;;12.15;67.32;97309.22;5054476;28;20623;-61
2023/04/14 01:44:09;;;;;;;2.38;1.92;;;;;;;12.35;67.24;97346.25;5054732;28;20256;-59
2023/04/14 01:46:35;;;;;;;2.60;2.40;;;;;;;12.54;67.20;97364.38;5053863;28;20219;-59
2023/04/14 01:49:02;;;;;;;2.25;2.13;;;;;;;12.24;66.84;97300.56;5054591;28;20174;-59
2023/04/14 01:51:28;;;;;;;4.10;1.75;;;;;;;12.17;66.69;97296.91;5054579;28;20560;-59
2023/04/14 01:53:56;;;;;;;2.55;2.35;;;;;;;12.05;67.01;97289.44;5032178;28;20190;-59
2023/04/14 01:56:23;;;;;;;1.95;1.80;;;;;;;12.70;66.08;97359.34;5032188;28;20244;-60
2023/04/14 01:58:51;;;;;;;1.92;1.83;;;;;;;12.72;66.32;97355.66;5032042;28;20210;-60
2023/04/14 02:01:16;;;;;;;2.65;2.00;;;;;;;12.91;65.06;97354.75;5032156;28;20185;-60
2023/04/14 02:03:48;;;;;;;1.90;1.80;;;;;;;12.48;64.78;97274.13;5032089;28;20186;-60
2023/04/14 02:06:14;;;;;;;2.15;1.90;;;;;;;13.04;64.26;97360.44;5032016;28;20202;-60
2023/04/14 02:08:40;;;;;;;2.78;1.90;;;;;;;13.09;64.13;97356.47;5031979;28;20704;-60
2023/04/14 02:11:08;;;;;;;2.90;1.83;;;;;;;13.04;64.38;97363.88;5031888;28;20210;-60
2023/04/14 02:13:34;;;;;;;2.03;1.90;;;;;;;13.04;64.66;97331.88;5031914;28;20183;-60
2023/04/14 02:16:01;;;;;;;2.10;2.00;;;;;;;12.62;64.44;97271.88;5031859;28;20261;-60
2023/04/14 02:18:28;;;;;;;2.35;1.80;;;;;;;12.56;65.16;97276.81;5032110;28;20187;-60
2023/04/14 02:20:56;;;;;;;2.00;1.80;;;;;;;12.83;65.86;97358.06;5031803;28;20278;-60
2023/04/14 02:23:22;;;;;;;1.73;1.63;;;;;;;12.28;66.83;97269.97;5031630;28;20574;-60
2023/04/14 02:26:01;;;;;;;2.10;2.00;;;;;;;12.44;66.56;97294.31;5066466;28;20180;-60
2023/04/14 02:28:31;;;;;;;2.10;1.92;;;;;;;12.74;66.61;97347.75;5071588;28;20189;-60
2023/04/14 02:30:58;;;;;;;2.38;2.05;;;;;;;12.80;66.71;97363.56;5071427;28;20296;-60
2023/04/14 02:33:30;;;;;;;2.75;1.90;;;;;;;12.51;66.42;97300.59;5071423;28;20233;-61
2023/04/14 02:36:06;;;;;;;3.65;1.92;;;;;;;12.60;65.72;97298.91;5071479;28;20268;-60
2023/04/14 02:38:38;;;;;;;2.25;2.05;;;;;;;12.91;66.41;97358.19;5071377;28;20655;-61
2023/04/14 02:41:11;;;;;;;3.85;2.65;;;;;;;12.60;66.87;97283.34;5071026;28;20760;-60
2023/04/14 02:43:46;;;;;;;3.13;2.80;;;;;;;12.83;67.95;97321.72;5071193;28;20247;-58
2023/04/14 02:46:15;;;;;;;3.80;2.60;;;;;;;12.71;67.62;97288.34;5071164;28;20685;-59
2023/04/14 02:48:41;;;;;;;2.58;2.33;;;;;;;12.89;67.67;97326.34;5071075;28;20264;-60
2023/04/14 02:51:10;;;;;;;2.35;2.17;;;;;;;12.90;67.40;97329.75;5071007;28;20221;-60
2023/04/14 02:53:36;;;;;;;2.60;2.10;;;;;;;13.04;67.78;97360.44;5070988;28;20185;-60
2023/04/14 02:56:02;;;;;;;2.55;2.15;;;;;;;12.82;68.21;97308.88;5070915;28;20570;-60
2023/04/14 02:58:28;;;;;;;3.08;2.80;;;;;;;13.13;67.87;97368.16;5070735;28;20200;-60
2023/04/14 03:00:56;;;;;;;3.05;2.75;;;;;;;13.29;67.48;97376.16;5070860;28;20264;-60
2023/04/14 03:03:23;;;;;;;3.72;3.13;;;;;;;13.21;66.84;97351.88;5050727;28;20239;-60
2023/04/14 03:05:49;;;;;;;3.33;3.03;;;;;;;13.39;67.00;97389.06;5050729;28;20200;-60
2023/04/14 03:08:15;;;;;;;3.35;3.03;;;;;;;13.28;67.12;97402.25;5050722;28;20328;-61
2023/04/14 03:10:46;;;;;;;4.55;2.75;;;;;;;12.74;70.22;97376.28;5050646;28;20288;-60
2023/04/14 03:13:13;;;;;;;3.00;2.50;;;;;;;12.48;71.42;97375.31;5050873;28;20678;-60
2023/04/14 03:15:39;;;;;;;2.75;2.55;;;;;;;12.48;72.40;97386.47;5050588;28;20178;-60
2023/04/14 03:18:05;;;;;;;2.78;2.40;;;;;;;12.45;70.75;97355.66;5050548;28;20562;-59
2023/04/14 03:20:32;;;;;;;4.28;2.53;;;;;;;12.67;70.55;97396.78;5050514;28;20181;-60
2023/04/14 03:23:00;;;;;;;2.55;2.35;;;;;;;12.13;71.06;97310.31;5050446;28;20652;-60
2023/04/14 03:25:31;;;;;;;3.13;2.83;;;;;;;12.13;72.34;97355.19;5050414;28;20652;-60
2023/04/14 03:28:00;;;;;;;3.75;2.42;;;;;;;11.81;72.75;97304.66;5050392;28;20182;-60
2023/04/14 03:30:29;;;;;;;3.50;2.65;;;;;;;12.34;72.60;97384.34;5050302;28;20247;-60
2023/04/14 03:33:00;;;;;;;3.28;2.42;;;;;;;12.18;73.16;97376.34;5050273;28;20182;-60
2023/04/14 03:35:26;;;;;;;3.17;2.90;;;;;;;11.95;73.47;97335.28;5052274;28;20178;-60
2023/04/14 03:37:58;;;;;;;5.03;2.78;;;;;;;11.60;74.07;97293.63;5052611;28;20174;-61
2023/04/14 03:40:29;;;;;;;2.97;2.78;;;;;;;11.62;74.11;97287.34;5052674;28;20199;-60
2023/04/14 03:42:57;;;;;;;3.10;2.30;;;;;;;12.08;74.48;97370.34;5052658;28;20162;-60
2023/04/14 03:45:23;;;;;;;2.95;2.50;;;;;;;11.43;75.49;97289.13;5052468;28;20176;-61
2023/04/14 03:47:49;;;;;;;3.00;2.55;;;;;;;11.53;78.06;97371.06;5052723;28;20181;-61
2023/04/14 03:50:17;;;;;;;2.55;2.35;;;;;;;11.29;80.06;97380.16;5052338;28;20204;-60
2023/04/14 03:52:45;;;;;;;2.88;2.60;;;;;;;11.26;81.00;97383.03;5030025;28;20355;-60
2023/04/14 03:55:11;;;;;;;4.07;2.63;;;;;;;11.55;79.89;97400.22;5030052;28;20687;-60
2023/04/14 03:57:38;;;;;;;3.72;2.67;;;;;;;11.79;78.10;97402.44;5029916;28;20209;-60
2023/04/14 04:00:07;;;;;;;2.80;2.58;;;;;;;11.79;77.64;97408.44;5030055;28;20182;-60
2023/04/14 04:02:33;;;;;;;2.08;1.98;;;;;;;11.80;77.81;97396.31;4997306;28;20194;-60
2023/04/14 04:05:00;;;;;;;2.88;2.42;;;;;;;11.53;78.04;97352.09;5029945;28;20186;-60
2023/04/14 04:07:27;;;;;;;4.63;2.25;;;;;;;11.77;77.39;97376.66;5029959;28;20191;-60
2023/04/14 04:09:54;;;;;;;2.65;2.45;;;;;;;12.04;76.31;97399.28;5029333;28;20203;-60
2023/04/14 04:12:21;;;;;;;2.50;2.30;;;;;;;12.29;75.73;97411.66;5029867;28;20663;-60
2023/04/14 04:14:47;;;;;;;2.72;2.47;;;;;;;11.91;75.99;97378.03;5029892;28;20175;-60
2023/04/14 04:17:16;;;;;;;3.70;2.67;;;;;;;11.66;76.30;97332.75;5029813;28;20228;-60
2023/04/14 04:19:43;;;;;;;4.05;2.60;;;;;;;11.86;77.45;97378.44;5029800;28;20180;-60
2023/04/14 04:22:13;;;;;;;2.70;2.50;;;;;;;11.49;78.16;97342.97;5029814;28;20676;-60
2023/04/14 04:24:39;;;;;;;3.85;3.00;;;;;;;11.73;79.04;97387.44;5049443;28;20199;-60
2023/04/14 04:27:05;;;;;;;4.30;2.70;;;;;;;11.89;78.58;97392.88;5052016;28;20701;-60
2023/04/14 04:29:31;;;;;;;4.63;3.88;;;;;;;11.98;78.40;97387.72;5051541;28;20572;-60
2023/04/14 04:31:56;;;;;;;3.67;3.30;;;;;;;11.75;77.63;97337.13;5051971;28;20180;-60
2023/04/14 04:34:24;;;;;;;5.63;3.33;;;;;;;12.24;75.16;97380.97;5051967;28;20260;-60
2023/04/14 04:36:50;;;;;;;3.45;3.10;;;;;;;12.29;74.53;97396.09;5051545;28;20561;-60
2023/04/14 04:39:16;;;;;;;5.38;4.38;;;;;;;12.58;74.22;97427.97;5051906;28;20170;-60
2023/04/14 04:41:41;;;;;;;5.82;4.78;;;;;;;12.63;72.82;97405.00;5051897;28;20268;-60
2023/04/14 04:44:07;;;;;;;4.10;3.80;;;;;;;12.43;71.51;97336.00;5051877;28;20660;-60
2023/04/14 04:46:50;;;;;;;6.75;5.03;;;;;;;13.10;70.73;97427.38;5051807;28;20209;-60
2023/04/14 04:49:16;;;;;;;5.40;4.40;;;;;;;13.21;70.06;97419.41;5051806;28;20297;-60
2023/04/14 04:51:42;;;;;;;4.80;3.83;;;;;;;13.21;69.67;97425.44;5051737;28;20265;-60
2023/04/14 04:54:07;;;;;;;4.97;4.13;;;;;;;13.19;69.61;97416.13;5051809;28;20178;-60
2023/04/14 04:56:33;;;;;;;7.80;4.82;;;;;;;13.06;69.13;97374.13;5051727;28;20170;-60
2023/04/14 04:58:58;;;;;;;6.50;4.53;;;;;;;13.35;68.63;97409.34;5051895;28;20185;-60
2023/04/14 05:01:24;;;;;;;5.35;4.38;;;;;;;12.77;68.92;97324.09;5051618;28;20625;-60
2023/04/14 05:03:49;;;;;;;4.65;4.15;;;;;;;13.15;68.91;97399.19;5051680;28;20170;-60
2023/04/14 05:06:15;;;;;;;4.63;3.60;;;;;;;13.24;68.63;97419.13;5051558;28;20178;-60
2023/04/14 05:08:41;;;;;;;6.60;4.60;;;;;;;12.55;68.10;97290.75;5051581;28;20178;-60
2023/04/14 05:11:06;;;;;;;8.00;4.70;;;;;;;13.28;67.83;97397.91;5051529;28;20193;-60
2023/04/14 05:13:32;;;;;;;7.47;4.20;;;;;;;12.81;68.50;97328.84;5051258;28;20205;-60
2023/04/14 05:16:03;;;;;;;7.28;4.57;;;;;;;13.54;67.34;97411.78;5051519;28;20174;-60
2023/04/14 05:18:30;;;;;;;8.60;4.60;;;;;;;13.51;66.92;97385.28;5051513;28;20255;-60
2023/04/14 05:21:00;;;;;;;5.78;3.80;;;;;;;13.19;66.73;97312.25;5052380;28;20180;-60
2023/04/14 05:23:25;;;;;;;4.80;4.32;;;;;;;13.74;66.85;97405.50;5055200;28;20162;-60
2023/04/14 05:25:54;;;;;;;6.05;4.07;;;;;;;13.54;67.05;97370.22;5055046;28;20624;-60
2023/04/14 05:28:20;;;;;;;7.53;3.78;;;;;;;13.42;67.77;97378.41;5054963;28;20259;-60
2023/04/14 05:30:45;;;;;;;5.45;3.70;;;;;;;13.60;67.75;97400.81;5054951;28;20322;-60
2023/04/14 05:33:11;;;;;;;7.15;3.97;;;;;;;13.50;67.38;97387.09;5054940;28;20181;-60
2023/04/14 05:35:36;;;;;;;4.93;3.85;;;;;;;13.18;67.50;97323.59;5055107;28;20174;-60
2023/04/14 05:38:01;;;;;;;4.75;3.92;;;;;;;13.14;67.59;97327.44;5054841;28;20184;-60
2023/04/14 05:40:27;;;;;;;5.28;4.47;;;;;;;13.16;68.29;97362.69;5054825;28;20632;-61
2023/04/14 05:42:52;;;;;;;4.10;3.60;;;;;;;13.36;68.27;97384.19;5054760;28;20181;-61
2023/04/14 05:45:18;;;;;;;5.80;4.22;;;;;;;13.31;67.68;97355.22;5054426;28;20173;-60
2023/04/14 05:47:44;;;;;;;5.97;5.03;;;;;;;13.51;67.30;97361.91;5054393;28;20166;-60
2023/04/14 05:50:10;;;;;;;6.45;5.53;;;;;;;13.27;68.12;97297.56;5054608;28;20660;-60
2023/04/14 05:52:35;;;;;;;7.38;6.10;;;;;;;13.41;68.06;97299.63;5054621;28;20269;-60
2023/04/14 05:55:01;;;;;;;9.50;5.60;;;;;;;13.98;67.76;97368.47;5054558;28;20255;-60
2023/04/14 05:57:26;;;;;;;7.70;5.28;;;;;;;13.95;68.37;97368.78;5054456;28;20190;-60
2023/04/14 05:59:52;;;;;;;11.70;5.63;;;;;;;13.53;68.35;97289.81;5054465;28;20623;-60
2023/04/14 06:02:17;;;;;;;9.80;6.30;;;;;;;13.64;68.00;97287.78;5054421;28;20170;-59
2023/04/14 06:04:45;;;;;;;6.80;5.43;;;;;;;13.95;68.02;97333.19;5054420;28;20182;-60
2023/04/14 06:07:10;;;;;;;7.03;5.32;;;;;;;14.10;67.96;97357.69;5054289;28;20205;-60
2023/04/14 06:09:36;;;;;;;10.15;5.60;;;;;;;14.21;68.04;97367.03;5051689;28;20692;-60
2023/04/14 06:12:01;;;;;;;9.10;6.00;;;;;;;14.26;67.71;97354.41;5051858;28;20189;-60
2023/04/14 06:14:26;;;;;;;8.68;5.60;;;;;;;13.84;67.42;97280.63;5051841;28;20289;-60
2023/04/14 06:16:53;;;;;;;8.27;5.65;;;;;;;14.02;67.24;97310.81;5051804;28;20688;-61
2023/04/14 06:19:18;;;;;;;7.57;5.82;;;;;;;13.97;66.76;97289.66;5051745;28;20185;-61
2023/04/14 06:21:45;;;;;;;7.95;6.25;;;;;;;14.31;67.01;97358.19;5051678;28;20675;-60
2023/04/14 06:24:10;;;;;;;12.18;5.93;;;;;;;13.96;66.89;97310.59;5051604;28;20230;-60
2023/04/14 06:26:36;;;;;;;7.85;5.68;;;;;;;14.03;66.85;97317.66;5051465;28;20683;-60
2023/04/14 06:29:01;;;;;;;7.57;5.20;;;;;;;14.38;67.06;97360.97;5051422;28;20247;-61
2023/04/14 06:31:30;;;;;;;8.38;5.47;;;;;;;13.58;67.44;97258.97;5070840;28;20189;-60
2023/04/14 06:33:55;;;;;;;17.58;5.60;;;;;;;13.92;67.85;97301.47;5071365;28;20184;-59
2023/04/14 06:36:21;;;;;;;13.52;5.35;;;;;;;13.95;67.87;97319.38;5071233;28;20197;-60
2023/04/14 06:38:46;;;;;;;7.70;5.78;;;;;;;13.59;68.44;97265.84;5071218;28;20184;-60
2023/04/14 06:41:11;;;;;;;6.53;5.78;;;;;;;14.01;69.15;97337.78;5071418;28;20193;-60
2023/04/14 06:43:37;;;;;;;10.85;6.10;;;;;;;14.09;68.59;97324.00;5070952;28;20306;-61
2023/04/14 06:46:02;;;;;;;7.78;6.55;;;;;;;14.00;67.84;97285.94;5070529;28;20200;-61
2023/04/14 06:48:28;;;;;;;12.35;6.18;;;;;;;13.93;67.91;97275.31;5070773;28;20264;-60
2023/04/14 06:50:56;;;;;;;13.88;7.65;;;;;;;13.88;68.18;97254.16;5070647;28;20319;-59
2023/04/14 06:53:24;;;;;;;8.55;6.97;;;;;;;14.00;68.18;97275.53;5070541;28;20281;-59
2023/04/14 06:55:57;;;;;;;10.77;6.63;;;;;;;14.44;67.97;97342.13;5070498;28;20189;-59
2023/04/14 06:58:32;;;;;;;9.25;6.63;;;;;;;14.14;67.79;97267.16;5070466;28;20197;-59
2023/04/14 07:00:59;;;;;;;11.40;6.55;;;;;;;14.45;67.65;97302.13;5061206;28;20192;-59
2023/04/14 07:03:26;;;;;;;9.07;6.35;;;;;;;14.52;67.08;97292.75;5033276;28;20202;-60
2023/04/14 07:05:52;;;;;;;10.85;6.60;;;;;;;14.46;66.90;97269.94;5050263;28;20686;-61
2023/04/14 07:08:18;;;;;;;7.65;6.72;;;;;;;15.04;66.45;97341.91;5043224;28;20328;-61
2023/04/14 07:10:44;;;;;;;11.80;6.45;;;;;;;15.00;66.44;97350.22;5056767;28;20221;-60
2023/04/14 07:13:10;;;;;;;10.80;6.35;;;;;;;14.57;65.60;97254.06;5049520;28;20592;-60
2023/04/14 07:15:35;;;;;;;13.65;6.45;;;;;;;14.98;65.73;97332.13;5049257;28;20352;-60
2023/04/14 07:18:01;;;;;;;10.65;6.35;;;;;;;15.00;65.70;97319.75;5049319;28;20648;-60
2023/04/14 07:20:29;;;;;;;11.82;6.22;;;;;;;15.11;64.93;97331.69;5048008;28;20198;-61
2023/04/14 07:22:54;;;;;;;10.23;6.05;;;;;;;15.29;64.76;97345.41;5049692;28;20703;-61
2023/04/14 07:25:20;;;;;;;8.68;6.43;;;;;;;15.29;64.70;97335.78;5048470;28;20197;-61
2023/04/14 07:27:46;;;;;;;10.23;6.63;;;;;;;15.32;64.60;97343.31;5048048;28;20208;-62
2023/04/14 07:30:11;;;;;;;9.95;5.70;;;;;;;15.07;64.70;97299.94;5049240;28;20210;-61
2023/04/14 07:32:37;;;;;;;9.82;6.18;;;;;;;15.36;65.01;97343.81;5050221;28;20186;-61
2023/04/14 07:35:03;;;;;;;12.90;6.15;;;;;;;15.14;65.12;97307.91;5050176;28;20194;-61
2023/04/14 07:37:29;;;;;;;10.68;5.40;;;;;;;15.19;65.34;97313.44;5019063;28;20191;-61
2023/04/14 07:39:55;;;;;;;6.20;5.60;;;;;;;15.26;65.67;97320.47;5026975;28;20190;-60
2023/04/14 07:42:20;;;;;;;7.72;5.70;;;;;;;15.13;65.78;97285.44;5032608;28;20174;-61
2023/04/14 07:44:46;;;;;;;11.70;5.30;;;;;;;14.97;65.51;97246.31;5048062;28;20193;-61
2023/04/14 07:47:11;;;;;;;11.32;5.75;;;;;;;15.24;65.62;97283.34;5045315;28;20176;-61
2023/04/14 07:49:36;;;;;;;7.72;6.05;;;;;;;15.05;67.10;97306.28;5065614;28;20291;-61
2023/04/14 07:52:02;;;;;;;11.85;5.75;;;;;;;14.99;67.15;97280.84;5053395;28;20194;-61
2023/04/14 07:54:30;;;;;;;9.65;5.72;;;;;;;15.13;67.74;97311.47;5037528;28;20261;-61
2023/04/14 07:56:56;;;;;;;6.90;5.80;;;;;;;15.05;67.94;97288.03;5039737;28;20181;-61
2023/04/14 07:59:22;;;;;;;8.35;6.10;;;;;;;14.98;67.68;97255.78;5038198;28;20672;-61
2023/04/14 08:01:47;;;;;;;10.82;5.57;;;;;;;15.36;66.83;97289.91;5036740;28;20681;-61
2023/04/14 08:04:13;;;;;;;10.02;5.82;;;;;;;15.35;66.19;97267.44;5038480;28;20194;-59
2023/04/14 08:06:38;;;;;;;11.60;6.28;;;;;;;15.08;65.82;97201.72;5038649;28;20243;-59
2023/04/14 08:09:04;;;;;;;6.75;5.75;;;;;;;15.19;65.35;97204.00;5040192;28;20644;-59
2023/04/14 08:11:29;;;;;;;11.32;6.50;;;;;;;15.47;65.09;97244.44;5038692;28;20273;-59
2023/04/14 08:13:55;;;;;;;8.68;5.60;;;;;;;15.19;65.38;97185.78;5040815;28;20190;-62
2023/04/14 08:16:21;;;;;;;7.68;6.00;;;;;;;14.94;65.49;97184.16;5048970;28;20310;-61
2023/04/14 08:18:47;;;;;;;7.03;5.75;;;;;;;15.17;66.16;97221.63;5046539;28;20189;-61
2023/04/14 08:21:12;;;;;;;6.68;5.00;;;;;;;14.62;65.05;97191.88;5049119;28;20239;-61
2023/04/14 08:23:38;;;;;;;6.30;5.55;;;;;;;14.73;64.66;97202.84;5049048;28;20258;-61
2023/04/14 08:26:03;;;;;;;7.20;4.80;;;;;;;14.73;65.28;97223.66;5049190;28;20185;-62
2023/04/14 08:28:29;;;;;;;5.78;5.10;;;;;;;14.65;64.04;97208.00;5049511;28;20198;-60
2023/04/14 08:30:54;;;;;;;9.80;5.97;;;;;;;14.85;64.92;97243.22;5045952;28;20225;-63
2023/04/14 08:33:20;;;;;;;9.40;6.05;;;;;;;14.71;64.82;97224.78;5049132;28;20231;-60
2023/04/14 08:35:45;;;;;;;10.88;5.70;;;;;;;14.83;64.30;97231.34;5050843;28;20289;-60
2023/04/14 08:38:11;;;;;;;8.88;6.50;;;;;;;14.64;66.20;97193.38;5069430;28;20189;-60
2023/04/14 08:40:39;;;;;;;9.98;6.03;;;;;;;14.72;66.60;97195.19;5069369;28;20717;-60
2023/04/14 08:43:05;;;;;;;10.15;6.85;;;;;;;15.04;66.70;97195.22;5069317;28;20200;-60
2023/04/14 08:45:31;;;;;;;10.77;6.95;;;;;;;15.33;65.84;97208.63;5039221;28;20216;-60
2023/04/14 08:47:59;;;;;;;7.60;5.90;;;;;;;15.30;65.55;97170.63;5014475;28;20197;-59
2023/04/14 08:50:34;;;;;;;8.60;6.88;;;;;;;15.73;64.70;97232.03;4993249;28;20225;-59
2023/04/14 08:53:04;;;;;;;12.43;6.78;;;;;;;15.96;63.78;97248.63;5014928;28;20197;-61
2023/04/14 08:55:32;;;;;;;10.95;6.85;;;;;;;16.37;63.26;97266.63;5022505;28;20322;-61
2023/04/14 08:58:00;;;;;;;15.65;7.30;;;;;;;16.30;62.70;97228.28;5021817;28;20194;-61
2023/04/14 09:00:25;;;;;;;8.18;6.35;;;;;;;16.70;61.22;97264.72;5060685;28;20181;-61
2023/04/14 09:02:52;;;;;;;12.05;6.50;;;;;;;16.69;60.30;97244.81;5064136;28;20203;-62
2023/04/14 09:05:17;;;;;;;15.55;5.85;;;;;;;16.70;58.36;97225.53;5062098;28;20196;-60
2023/04/14 09:07:43;;;;;;;6.63;4.60;;;;;;;16.78;55.43;97215.03;5063600;28;20589;-61
2023/04/14 09:10:11;;;;;;;6.30;3.70;;;;;;;16.87;54.93;97193.94;5060651;28;20804;-61
2023/04/14 09:12:41;;;;;;;5.03;3.42;;;;;;;17.21;54.48;97243.19;5052433;28;20249;-61
2023/04/14 09:15:07;;;;;;;8.82;3.50;;;;;;;17.48;54.49;97269.63;5052474;28;20185;-61
2023/04/14 09:17:33;;;;;;;7.97;4.15;;;;;;;17.29;54.83;97232.66;5051746;28;20189;-60
2023/04/14 09:19:58;;;;;;;8.15;3.97;;;;;;;17.37;55.27;97241.25;5052686;28;20189;-61
2023/04/14 09:22:25;;;;;;;7.68;3.83;;;;;;;17.60;55.98;97251.75;5052739;28;20263;-60
2023/04/14 09:24:50;;;;;;;6.15;4.60;;;;;;;17.33;55.80;97198.16;5052571;28;20568;-60
2023/04/14 09:27:16;;;;;;;5.10;4.20;;;;;;;17.61;56.75;97237.66;5052661;28;20185;-60
2023/04/14 09:29:42;;;;;;;4.55;3.90;;;;;;;17.82;56.79;97245.63;5052606;28;20216;-60
2023/04/14 09:32:08;;;;;;;4.78;4.30;;;;;;;17.86;56.58;97236.44;5038301;28;20201;-60
2023/04/14 09:34:33;;;;;;;5.47;4.00;;;;;;;17.67;57.05;97216.03;5034948;28;20184;-60
2023/04/14 09:37:07;;;;;;;5.28;4.20;;;;;;;18.11;56.91;97250.91;5034959;28;20184;-60
2023/04/14 09:39:33;;;;;;;6.13;4.25;;;;;;;18.06;56.17;97219.22;5034474;28;20162;-61
2023/04/14 09:42:00;;;;;;;8.23;5.07;;;;;;;18.43;55.78;97261.88;5042041;28;20442;-61
2023/04/14 09:44:26;;;;;;;7.10;4.55;;;;;;;18.10;55.58;97187.28;5052062;28;20264;-60
2023/04/14 09:47:00;;;;;;;4.55;4.13;;;;;;;18.67;54.35;97231.94;5053683;28;20260;-61
2023/04/14 09:49:26;;;;;;;5.07;3.80;;;;;;;18.71;53.99;97227.97;5054354;28;20239;-60
2023/04/14 09:51:56;;;;;;;7.15;4.55;;;;;;;18.85;53.90;97222.69;5054458;28;20199;-60
2023/04/14 09:54:25;;;;;;;4.93;4.43;;;;;;;18.96;53.69;97216.16;5054425;28;20173;-60
2023/04/14 09:56:54;;;;;;;8.38;5.72;;;;;;;18.80;55.38;97185.75;5052411;28;20630;-60
2023/04/14 09:59:33;;;;;;;4.78;4.32;;;;;;;18.81;54.70;97187.38;5052558;28;20173;-60
2023/04/14 10:02:02;;;;;;;9.85;4.63;;;;;;;18.70;55.43;97158.19;5050080;28;20173;-61
2023/04/14 10:04:28;;;;;;;10.25;5.28;;;;;;;19.07;55.57;97203.34;5047965;28;20182;-61
2023/04/14 10:07:00;;;;;;;5.50;5.00;;;;;;;18.94;55.10;97150.00;5046326;28;20664;-61
2023/04/14 10:09:27;;;;;;;5.32;4.82;;;;;;;18.91;54.85;97163.47;5036332;28;20205;-61
2023/04/14 10:12:12;;;;;;;5.40;4.10;;;;;;;19.04;54.36;97171.44;5041802;28;20306;-60
2023/04/14 10:14:39;;;;;;;4.70;4.10;;;;;;;19.20;53.73;97177.28;5038310;28;20189;-60
2023/04/14 10:17:08;;;;;;;6.18;4.68;;;;;;;18.98;53.61;97109.28;5042637;28;20247;-61
2023/04/14 10:19:36;;;;;;;7.22;4.80;;;;;;;19.50;53.06;97157.78;5041904;28;20169;-61
2023/04/14 10:22:03;;;;;;;5.57;4.30;;;;;;;19.70;51.96;97132.47;5047710;28;20264;-61
2023/04/14 10:24:29;;;;;;;6.75;4.60;;;;;;;20.20;50.97;97179.44;5053212;28;20260;-61
2023/04/14 10:26:55;;;;;;;8.30;4.88;;;;;;;20.48;50.16;97189.88;5043004;28;20260;-61
2023/04/14 10:29:21;;;;;;;8.13;5.22;;;;;;;20.19;50.40;97116.59;5051067;28;20265;-61
2023/04/14 10:31:51;;;;;;;12.85;7.47;;;;;;;20.74;52.84;97193.41;5049057;28;20626;-61
2023/04/14 10:34:16;;;;;;;8.98;6.88;;;;;;;20.68;52.76;97180.25;5042536;28;20198;-62
2023/04/14 10:36:42;;;;;;;7.32;5.50;;;;;;;20.86;52.41;97185.78;5032534;28;20251;-61
2023/04/14 10:39:10;;;;;;;7.80;4.88;;;;;;;20.86;52.80;97155.00;5033531;28;20174;-60
2023/04/14 10:41:41;;;;;;;8.43;5.70;;;;;;;21.10;54.36;97208.91;5033190;28;20711;-60
2023/04/14 10:44:25;;;;;;;9.50;5.70;;;;;;;21.16;52.51;97189.69;5033394;28;20206;-60
2023/04/14 10:46:51;;;;;;;6.93;5.72;;;;;;;21.13;51.86;97148.81;5033422;28;20170;-61
2023/04/14 10:49:17;;;;;;;5.72;4.97;;;;;;;21.30;52.38;97122.91;5030683;28;20196;-61
2023/04/14 10:51:43;;;;;;;10.50;4.90;;;;;;;21.55;51.64;97131.78;5030902;28;20598;-61
2023/04/14 10:54:17;;;;;;;16.05;6.80;;;;;;;21.58;53.93;97155.09;5030236;28;20221;-61
2023/04/14 10:57:13;;;;;;;12.52;6.63;;;;;;;21.80;54.90;97149.41;5029823;28;20745;-61
2023/04/14 10:59:40;;;;;;;11.45;6.47;;;;;;;21.96;54.07;97159.53;5030157;28;20202;-61
2023/04/14 11:02:30;;;;;;;7.93;5.93;;;;;;;21.97;53.59;97097.13;5029585;28;20608;-61
2023/04/14 11:05:10;;;;;;;15.82;7.03;;;;;;;22.69;53.25;97166.19;5030630;28;20243;-61
2023/04/14 11:07:44;;;;;;;13.68;6.22;;;;;;;22.54;52.14;97097.09;5030476;28;20683;-61
2023/04/14 11:10:18;;;;;;;11.50;5.65;;;;;;;23.17;50.99;97149.69;5030779;28;20219;-61
2023/04/14 11:12:45;;;;;;;9.98;6.25;;;;;;;23.04;50.76;97093.53;5028516;28;20170;-61
2023/04/14 11:15:10;;;;;;;10.27;5.65;;;;;;;23.49;49.96;97119.56;5028433;28;20201;-61
2023/04/14 11:17:37;;;;;;;11.18;5.72;;;;;;;23.80;48.95;97122.13;5068018;28;20555;-61
2023/04/14 11:20:13;;;;;;;10.23;5.65;;;;;;;23.72;48.58;97063.50;5067726;28;20662;-61
2023/04/14 11:22:40;;;;;;;11.30;6.05;;;;;;;23.97;48.44;97075.63;5068468;28;20188;-61
2023/04/14 11:25:07;;;;;;;11.77;5.68;;;;;;;24.25;47.44;97067.94;5068422;28;20184;-61
2023/04/14 11:27:33;;;;;;;10.93;5.45;;;;;;;24.76;46.77;97094.75;5069697;28;20233;-61
2023/04/14 11:30:02;;;;;;;13.77;5.25;;;;;;;24.59;46.42;97076.06;5070308;28;20736;-61
2023/04/14 11:32:43;;;;;;;7.95;4.50;;;;;;;24.55;47.28;97064.28;5070314;28;20636;-61